Terminal Aerodrome Forecast
Issued by NWS Austin/San Antonio, TX

Home | Current Version | Previous Version | Text Only | Print | Product List | Glossary On
Versions: 1 2 3 4 5 6 7 8 9 10 11 12 13 14 15 16
000
FTUS44 KEWX 171700
TAFSAT
TAF
KSAT 171732Z 1718/1824 10008KT P6SM BKN017 OVC040
      TEMPO 1718/1720 SCT017 BKN025
     FM180300 07006KT P6SM OVC008
     FM180800 03003KT 4SM BR OVC004
     FM181200 04006KT 2SM BR OVC002
     FM181500 06006KT 5SM BR OVC015
     FM181800 08007KT P6SM SCT015=

USA.gov is the U.S. government's official web portal to all federal, state and local government web resources and services.